Time;durP1;ratioP1;P1;durP2;ratioP2;P2;SDS_P1;SDS_P2;PMS_P1;PMS_P2;Temp;Humidity;BMP_temperature;BMP_pressure;BME280_temperature;BME280_humidity;BME280_pressure;Samples;Min_cycle;Max_cycle;Signal;HPM_P1;HPM_P2
2022/11/23 00:01:56;;;;;;;9.25;7.30;;;;;;;5.78;91.03;96760.78;4183392;28;20744;-86
2022/11/23 00:04:03;;;;;;;9.63;7.97;;;;;;;5.73;90.85;96755.91;4200252;28;20315;-86
2022/11/23 00:06:06;;;;;;;10.35;7.93;;;;;;;5.71;90.73;96756.94;4180417;28;20248;-86
2022/11/23 00:08:09;;;;;;;10.15;8.20;;;;;;;5.62;90.71;96750.69;4201402;28;20203;-87
2022/11/23 00:10:14;;;;;;;11.32;7.93;;;;;;;5.57;90.23;96756.28;4180343;28;21127;-86
2022/11/23 00:12:17;;;;;;;8.48;6.65;;;;;;;5.53;91.68;96757.41;4200721;28;20292;-86
2022/11/23 00:14:20;;;;;;;9.50;7.03;;;;;;;5.55;91.19;96758.13;4192600;28;20276;-86
2022/11/23 00:16:24;;;;;;;8.93;7.70;;;;;;;5.49;91.44;96741.31;4190573;28;20484;-86
2022/11/23 00:18:27;;;;;;;9.77;6.88;;;;;;;5.43;91.29;96754.66;4195610;28;20217;-86
2022/11/23 00:20:30;;;;;;;8.07;6.53;;;;;;;5.35;90.82;96754.38;4208041;28;20699;-87
2022/11/23 00:22:33;;;;;;;9.80;6.70;;;;;;;5.29;91.39;96752.22;4206062;28;20220;-86
2022/11/23 00:24:37;;;;;;;11.50;6.70;;;;;;;5.23;91.13;96746.63;4200257;28;20209;-86
2022/11/23 00:26:41;;;;;;;9.38;6.55;;;;;;;5.16;91.22;96740.25;4185956;28;20213;-86
2022/11/23 00:28:45;;;;;;;13.52;7.47;;;;;;;5.14;92.12;96748.09;4182652;28;20210;-86
2022/11/23 00:30:51;;;;;;;15.32;6.78;;;;;;;5.10;91.67;96742.41;4201513;28;20599;-86
2022/11/23 00:32:54;;;;;;;12.05;7.13;;;;;;;5.09;91.97;96756.25;4198800;28;20202;-86
2022/11/23 00:34:57;;;;;;;21.02;7.13;;;;;;;5.06;91.23;96759.06;4203702;28;20206;-86
2022/11/23 00:37:00;;;;;;;10.55;5.93;;;;;;;5.04;91.67;96755.75;4201561;28;20205;-87
2022/11/23 00:39:04;;;;;;;8.73;6.65;;;;;;;5.01;91.49;96761.13;4196703;28;20229;-86
2022/11/23 00:41:09;;;;;;;8.63;6.40;;;;;;;5.01;92.31;96758.56;4190269;28;20198;-86
2022/11/23 00:43:14;;;;;;;10.25;7.20;;;;;;;5.01;92.13;96761.94;4203038;28;20193;-86
2022/11/23 00:45:17;;;;;;;10.18;7.47;;;;;;;5.03;92.17;96760.09;4199592;28;20213;-86
2022/11/23 00:47:20;;;;;;;10.80;7.38;;;;;;;5.03;91.98;96769.59;4201750;28;20206;-86
2022/11/23 00:49:23;;;;;;;14.52;7.70;;;;;;;5.03;91.76;96764.44;4185438;28;20233;-86
2022/11/23 00:51:28;;;;;;;10.32;6.10;;;;;;;5.02;91.72;96765.34;4189177;28;20210;-86
2022/11/23 00:53:31;;;;;;;10.07;6.00;;;;;;;5.00;92.17;96759.47;4185926;28;20210;-86
2022/11/23 00:55:34;;;;;;;8.70;5.38;;;;;;;5.02;91.70;96773.09;4197180;28;20208;-86
2022/11/23 00:57:37;;;;;;;12.90;6.72;;;;;;;5.01;92.10;96771.47;4201481;28;20228;-86
2022/11/23 00:59:41;;;;;;;8.90;6.13;;;;;;;4.98;91.65;96769.09;4192927;28;20697;-87
2022/11/23 01:01:44;;;;;;;14.65;7.50;;;;;;;4.95;91.61;96772.69;4184660;28;20237;-86
2022/11/23 01:03:51;;;;;;;9.27;6.20;;;;;;;4.94;92.22;96770.22;4185096;28;20588;-86
2022/11/23 01:05:55;;;;;;;14.35;7.63;;;;;;;4.96;92.00;96774.34;4186773;28;20207;-86
2022/11/23 01:07:58;;;;;;;11.85;5.88;;;;;;;4.98;92.71;96771.66;4203547;28;20894;-86
2022/11/23 01:10:01;;;;;;;7.43;5.95;;;;;;;5.00;91.95;96769.81;4203531;28;20208;-87
2022/11/23 01:12:04;;;;;;;6.70;5.22;;;;;;;5.01;92.31;96768.88;4203413;28;20230;-86
2022/11/23 01:14:07;;;;;;;8.05;5.30;;;;;;;5.02;92.77;96763.63;4189717;28;20214;-86
2022/11/23 01:16:14;;;;;;;10.15;5.68;;;;;;;5.04;93.05;96771.25;4207922;28;20255;-86
2022/11/23 01:18:26;;;;;;;8.50;5.72;;;;;;;5.06;92.76;96771.97;4204803;28;20277;-86
2022/11/23 01:20:29;;;;;;;6.30;5.22;;;;;;;5.10;93.08;96773.41;4219203;28;20209;-86
2022/11/23 01:22:32;;;;;;;9.95;6.50;;;;;;;5.13;92.72;96763.69;4187732;28;20209;-86
2022/11/23 01:24:35;;;;;;;8.77;5.28;;;;;;;5.15;92.79;96767.81;4193776;28;20205;-86
2022/11/23 01:26:38;;;;;;;6.70;5.95;;;;;;;5.16;93.41;96764.31;4209132;28;20654;-86
2022/11/23 01:28:42;;;;;;;12.02;8.43;;;;;;;5.18;93.31;96770.19;4201943;28;20197;-86
2022/11/23 01:30:45;;;;;;;20.83;13.15;;;;;;;5.20;93.69;96776.09;4205396;28;20256;-87
2022/11/23 01:32:51;;;;;;;10.48;6.40;;;;;;;5.22;93.78;96776.81;4204731;28;20276;-86
2022/11/23 01:34:54;;;;;;;11.27;7.85;;;;;;;5.23;93.69;96783.63;4194975;28;20206;-86
2022/11/23 01:36:57;;;;;;;15.68;10.32;;;;;;;5.25;93.26;96778.38;4202634;28;20205;-86
2022/11/23 01:39:04;;;;;;;12.55;8.63;;;;;;;5.24;93.86;96782.69;4189859;28;20230;-86
2022/11/23 01:41:09;;;;;;;15.95;10.05;;;;;;;5.28;93.89;96781.56;4202755;28;20219;-87
2022/11/23 01:43:15;;;;;;;14.75;9.10;;;;;;;5.29;94.38;96779.78;4202199;28;20251;-86
2022/11/23 01:45:39;;;;;;;14.10;9.00;;;;;;;5.32;94.64;96787.34;4223603;28;20669;-85
2022/11/23 01:47:42;;;;;;;13.85;9.60;;;;;;;5.34;94.29;96781.13;4204169;28;20756;-86
2022/11/23 01:49:50;;;;;;;9.90;7.32;;;;;;;5.38;94.77;96789.50;4188851;28;20293;-86
2022/11/23 01:51:56;;;;;;;8.25;6.30;;;;;;;5.42;94.35;96788.38;4187877;28;20210;-86
2022/11/23 01:54:02;;;;;;;7.18;6.47;;;;;;;5.47;94.95;96791.44;4183611;28;20210;-86
2022/11/23 01:56:07;;;;;;;7.80;6.20;;;;;;;5.46;94.52;96792.38;4187031;28;20204;-87
2022/11/23 01:58:11;;;;;;;6.93;4.85;;;;;;;5.45;94.48;96798.50;4202689;28;20208;-86
2022/11/23 02:00:15;;;;;;;9.00;6.43;;;;;;;5.47;94.69;96800.03;4187864;28;20326;-86
2022/11/23 02:02:19;;;;;;;8.88;6.47;;;;;;;5.47;94.70;96797.44;4189502;28;20669;-86
2022/11/23 02:04:28;;;;;;;6.72;5.28;;;;;;;5.47;94.39;96802.59;4188454;28;20237;-87
2022/11/23 02:06:33;;;;;;;7.15;5.50;;;;;;;5.50;95.02;96802.41;4179140;28;20211;-85
2022/11/23 02:08:37;;;;;;;7.20;4.97;;;;;;;5.49;94.45;96798.19;4188939;28;20354;-86
2022/11/23 02:10:40;;;;;;;7.63;5.95;;;;;;;5.52;94.64;96803.13;4203902;28;20725;-86
2022/11/23 02:12:46;;;;;;;7.75;5.53;;;;;;;5.51;95.20;96804.06;4182153;28;20206;-86
2022/11/23 02:14:49;;;;;;;6.30;4.90;;;;;;;5.54;94.74;96808.19;4187774;28;20231;-87
2022/11/23 02:16:54;;;;;;;8.10;5.78;;;;;;;5.55;94.29;96805.50;4189937;28;20206;-86
2022/11/23 02:18:57;;;;;;;7.22;5.45;;;;;;;5.56;94.29;96806.31;4203761;28;20727;-86
2022/11/23 02:21:01;;;;;;;6.50;5.10;;;;;;;5.56;93.79;96791.63;4186701;28;20230;-86
2022/11/23 02:23:15;;;;;;;5.53;4.70;;;;;;;5.53;93.57;96802.19;4183393;28;20220;-86
2022/11/23 02:25:25;;;;;;;5.25;4.63;;;;;;;5.49;93.40;96798.19;4192579;28;20206;-86
2022/11/23 02:27:29;;;;;;;9.30;5.70;;;;;;;5.48;93.49;96804.28;4190734;28;20227;-87
2022/11/23 02:29:33;;;;;;;6.22;4.70;;;;;;;5.45;92.87;96804.47;4189576;28;20259;-86
2022/11/23 02:31:37;;;;;;;10.05;6.00;;;;;;;5.41;92.58;96802.22;4202285;28;20232;-86
2022/11/23 02:33:40;;;;;;;8.57;4.95;;;;;;;5.39;92.75;96802.31;4186790;28;20256;-86
2022/11/23 02:35:48;;;;;;;5.03;4.50;;;;;;;5.38;93.07;96802.41;4189284;28;20236;-86
2022/11/23 02:37:52;;;;;;;8.98;5.40;;;;;;;5.37;92.58;96817.13;4191485;28;20209;-86
2022/11/23 02:39:56;;;;;;;9.02;5.70;;;;;;;5.34;93.52;96812.16;4207639;28;20237;-86
2022/11/23 02:41:59;;;;;;;9.68;5.60;;;;;;;5.33;93.79;96813.06;4182205;28;20209;-86
2022/11/23 02:44:04;;;;;;;12.48;6.80;;;;;;;5.33;93.37;96809.69;4201839;28;20214;-86
2022/11/23 02:46:08;;;;;;;5.80;4.85;;;;;;;5.31;92.91;96807.19;4182038;28;20237;-86
2022/11/23 02:48:11;;;;;;;7.50;5.18;;;;;;;5.29;92.48;96810.81;4200540;28;20631;-86
2022/11/23 02:50:14;;;;;;;7.57;5.13;;;;;;;5.27;92.55;96810.09;4185689;28;20275;-86
2022/11/23 02:52:18;;;;;;;10.55;5.72;;;;;;;5.29;92.58;96813.38;4207327;28;20247;-86
2022/11/23 02:54:21;;;;;;;7.15;5.50;;;;;;;5.30;92.71;96808.13;4187555;28;20238;-85
2022/11/23 02:56:26;;;;;;;7.72;5.95;;;;;;;5.31;92.48;96808.97;4187259;28;20613;-85
2022/11/23 02:58:29;;;;;;;9.63;6.68;;;;;;;5.36;92.81;96809.47;4201670;28;20848;-87
2022/11/23 03:00:34;;;;;;;8.65;5.95;;;;;;;5.39;93.44;96809.25;4201084;28;20586;-86
2022/11/23 03:02:37;;;;;;;6.30;5.20;;;;;;;5.44;93.54;96817.50;4201083;28;20224;-85
2022/11/23 03:04:40;;;;;;;6.30;4.80;;;;;;;5.43;92.78;96816.69;4201791;28;20717;-86
2022/11/23 03:06:43;;;;;;;8.68;6.25;;;;;;;5.45;93.38;96820.00;4187376;28;20248;-86
2022/11/23 03:08:47;;;;;;;9.60;6.65;;;;;;;5.46;92.77;96819.06;4200634;28;20297;-86
2022/11/23 03:10:51;;;;;;;10.05;6.40;;;;;;;5.43;93.23;96816.69;4180242;28;20205;-86
2022/11/23 03:12:55;;;;;;;8.80;6.20;;;;;;;5.45;93.53;96820.00;4200669;28;21719;-86
2022/11/23 03:15:00;;;;;;;9.25;5.80;;;;;;;5.48;93.66;96822.38;4182089;28;20214;-86
2022/11/23 03:17:07;;;;;;;7.18;5.65;;;;;;;5.50;93.98;96814.50;4187963;28;20615;-86
2022/11/23 03:19:16;;;;;;;7.68;5.50;;;;;;;5.52;94.21;96810.91;4201241;28;20221;-86
2022/11/23 03:21:19;;;;;;;6.63;5.90;;;;;;;5.53;94.49;96817.69;4203193;28;20213;-86
2022/11/23 03:23:22;;;;;;;7.65;6.15;;;;;;;5.55;94.54;96815.84;4200207;28;20205;-86
2022/11/23 03:25:25;;;;;;;8.57;6.35;;;;;;;5.54;94.13;96814.19;4183631;28;20224;-86
2022/11/23 03:27:32;;;;;;;7.15;5.95;;;;;;;5.55;94.25;96825.34;4184949;28;20258;-86
2022/11/23 03:29:36;;;;;;;13.07;5.45;;;;;;;5.57;94.98;96819.16;4185907;28;20294;-86
2022/11/23 03:31:45;;;;;;;7.75;5.72;;;;;;;5.60;93.86;96823.28;4186189;28;20634;-86
2022/11/23 03:33:51;;;;;;;10.48;5.97;;;;;;;5.63;94.78;96824.72;4182100;28;20208;-86
2022/11/23 03:35:55;;;;;;;6.97;5.60;;;;;;;5.66;94.88;96816.75;4201538;28;20206;-86
2022/11/23 03:38:02;;;;;;;7.40;5.93;;;;;;;5.67;94.44;96821.00;4199422;28;20205;-87
2022/11/23 03:40:07;;;;;;;7.53;5.35;;;;;;;5.70;94.37;96820.78;4186209;28;20221;-86
2022/11/23 03:42:45;;;;;;;7.55;5.55;;;;;;;5.70;94.27;96814.78;4193594;28;20267;-86
2022/11/23 03:44:48;;;;;;;9.05;5.88;;;;;;;5.69;94.46;96811.34;4197764;28;20229;-86
2022/11/23 03:46:51;;;;;;;9.20;5.60;;;;;;;5.71;94.42;96812.09;4200117;28;20669;-86
2022/11/23 03:48:56;;;;;;;7.30;5.65;;;;;;;5.72;94.55;96815.50;4181892;28;20202;-86
2022/11/23 03:50:59;;;;;;;9.35;5.82;;;;;;;5.72;93.97;96808.56;4187855;28;20213;-86
2022/11/23 03:53:02;;;;;;;7.03;4.93;;;;;;;5.70;93.75;96814.78;4185731;28;20205;-86
2022/11/23 03:55:06;;;;;;;8.80;5.57;;;;;;;5.68;93.88;96819.22;4183664;28;20211;-86
2022/11/23 03:57:09;;;;;;;9.07;6.90;;;;;;;5.66;93.63;96806.41;4200523;28;20209;-86
2022/11/23 03:59:13;;;;;;;7.63;5.53;;;;;;;5.66;93.49;96811.56;4200528;28;20255;-86
2022/11/23 04:01:15;;;;;;;7.43;5.85;;;;;;;5.67;93.73;96804.66;4199624;28;20855;-86
2022/11/23 04:03:22;;;;;;;7.70;6.55;;;;;;;5.68;93.41;96803.72;4201605;28;21772;-86
2022/11/23 04:06:05;;;;;;;7.82;5.72;;;;;;;5.65;93.92;96804.78;4191217;28;20214;-86
2022/11/23 04:08:28;;;;;;;7.20;5.03;;;;;;;5.66;94.85;96803.00;4180517;28;20205;-86
2022/11/23 04:10:33;;;;;;;6.95;6.15;;;;;;;5.65;94.14;96791.84;4176017;28;20718;-86
2022/11/23 04:12:50;;;;;;;8.38;5.78;;;;;;;5.65;94.38;96798.75;4179959;28;20266;-86
2022/11/23 04:14:53;;;;;;;10.35;5.90;;;;;;;5.64;93.87;96799.69;4187882;28;20232;-86
2022/11/23 04:16:56;;;;;;;6.75;5.13;;;;;;;5.61;94.68;96794.75;4196225;28;20217;-86
2022/11/23 04:19:00;;;;;;;8.80;5.50;;;;;;;5.60;94.27;96809.41;4186840;28;20205;-86
2022/11/23 04:21:04;;;;;;;6.30;5.20;;;;;;;5.64;94.93;96812.63;4189398;28;20221;-85
2022/11/23 04:23:08;;;;;;;7.80;5.32;;;;;;;5.65;94.62;96802.19;4189343;28;20218;-86
2022/11/23 04:25:16;;;;;;;8.73;5.70;;;;;;;5.67;94.97;96800.31;4193486;28;20207;-86
2022/11/23 04:27:21;;;;;;;7.70;4.80;;;;;;;5.70;94.83;96807.03;4180372;28;20705;-86
2022/11/23 04:29:24;;;;;;;7.90;5.80;;;;;;;5.74;95.02;96803.31;4189249;28;20234;-86
2022/11/23 04:31:29;;;;;;;7.03;4.55;;;;;;;5.77;95.12;96801.38;4186731;28;20256;-87
2022/11/23 04:33:45;;;;;;;6.75;4.80;;;;;;;5.79;94.98;96803.84;4200556;28;20578;-86
2022/11/23 04:35:50;;;;;;;11.90;5.25;;;;;;;5.81;95.08;96802.78;4189193;28;20776;-86
2022/11/23 04:37:56;;;;;;;7.47;4.85;;;;;;;5.80;95.37;96806.31;4190597;28;20206;-86
2022/11/23 04:40:01;;;;;;;7.82;5.07;;;;;;;5.83;95.11;96803.53;4186934;28;20301;-86
2022/11/23 04:42:16;;;;;;;6.22;4.60;;;;;;;5.81;95.21;96801.97;4191154;28;20238;-86
2022/11/23 04:44:24;;;;;;;8.10;5.65;;;;;;;5.82;95.35;96804.44;4206484;28;20210;-86
2022/11/23 04:46:34;;;;;;;6.45;4.80;;;;;;;5.81;94.86;96795.03;4206616;28;20209;-87
2022/11/23 04:48:42;;;;;;;7.00;4.78;;;;;;;5.79;95.12;96798.66;4208221;28;20215;-86
2022/11/23 04:50:45;;;;;;;5.90;5.22;;;;;;;5.82;95.32;96793.28;4203725;28;20189;-86
2022/11/23 04:52:57;;;;;;;7.47;4.68;;;;;;;5.84;95.33;96801.75;4188173;28;20254;-86
2022/11/23 04:55:09;;;;;;;5.25;4.40;;;;;;;5.86;95.23;96802.47;4205290;28;20201;-86
2022/11/23 04:57:19;;;;;;;9.95;5.47;;;;;;;5.87;95.54;96804.13;4186262;28;20209;-86
2022/11/23 04:59:25;;;;;;;6.28;4.35;;;;;;;5.89;95.54;96799.66;4207332;28;20251;-86
2022/11/23 05:01:29;;;;;;;8.00;5.68;;;;;;;5.90;94.76;96803.91;4204617;28;20217;-86
2022/11/23 05:04:04;;;;;;;10.27;8.20;;;;;;;5.89;95.17;96799.66;4205886;28;20236;-87
2022/11/23 05:06:09;;;;;;;10.32;6.32;;;;;;;5.91;95.52;96806.38;4208295;28;20243;-86
2022/11/23 05:08:19;;;;;;;7.50;5.13;;;;;;;5.93;95.31;96798.50;4206671;28;20224;-86
2022/11/23 05:10:28;;;;;;;8.93;5.20;;;;;;;5.90;95.49;96790.97;4208745;28;20572;-86
2022/11/23 05:12:35;;;;;;;7.45;5.15;;;;;;;5.88;94.76;96798.00;4201480;28;20200;-86
2022/11/23 05:14:38;;;;;;;9.02;5.25;;;;;;;5.85;94.85;96793.88;4205704;28;20799;-86
2022/11/23 05:16:43;;;;;;;12.70;5.80;;;;;;;5.84;94.84;96788.81;4192965;28;20222;-87
2022/11/23 05:18:46;;;;;;;10.85;7.45;;;;;;;5.86;94.77;96790.34;4207904;28;20304;-86
2022/11/23 05:20:49;;;;;;;10.52;7.63;;;;;;;5.85;94.93;96795.63;4204451;28;20222;-86
2022/11/23 05:22:52;;;;;;;8.30;6.15;;;;;;;5.84;95.26;96789.63;4188542;28;20241;-86
2022/11/23 05:24:59;;;;;;;9.02;5.60;;;;;;;5.87;94.88;96796.38;4193308;28;20710;-87
2022/11/23 05:27:05;;;;;;;8.20;5.97;;;;;;;5.86;95.79;96799.88;4207139;28;20209;-86
2022/11/23 05:29:08;;;;;;;12.27;5.65;;;;;;;5.85;95.07;96796.47;4188343;28;20697;-86
2022/11/23 05:31:12;;;;;;;6.32;4.78;;;;;;;5.86;95.36;96795.50;4191414;28;20213;-87
2022/11/23 05:33:17;;;;;;;14.40;6.10;;;;;;;5.87;95.70;96794.59;4201359;28;20690;-86
2022/11/23 05:35:21;;;;;;;8.63;5.35;;;;;;;5.92;96.01;96796.84;4189724;28;20244;-87
2022/11/23 05:37:24;;;;;;;8.23;5.75;;;;;;;5.96;95.87;96795.72;4196729;28;20598;-86
2022/11/23 05:39:33;;;;;;;7.43;5.80;;;;;;;5.97;95.49;96787.00;4188125;28;20202;-86
2022/11/23 05:41:38;;;;;;;7.65;6.18;;;;;;;5.98;95.94;96786.06;4193007;28;20226;-86
2022/11/23 05:43:52;;;;;;;8.40;6.05;;;;;;;5.99;95.95;96785.16;4205072;28;20212;-86
2022/11/23 05:46:01;;;;;;;8.63;6.05;;;;;;;5.99;96.02;96779.97;4198597;28;20338;-87
2022/11/23 05:48:05;;;;;;;7.03;6.10;;;;;;;5.98;95.71;96789.47;4183807;28;20212;-87
2022/11/23 05:50:29;;;;;;;7.18;5.72;;;;;;;5.94;95.38;96788.06;4190293;28;20211;-86
2022/11/23 05:52:50;;;;;;;7.45;5.88;;;;;;;5.92;95.53;96783.91;4199811;28;20207;-87
2022/11/23 05:54:54;;;;;;;7.35;5.40;;;;;;;5.92;95.85;96782.16;4183396;28;20202;-87
2022/11/23 05:56:59;;;;;;;8.68;5.68;;;;;;;5.91;95.80;96787.44;4203915;28;20203;-87
2022/11/23 05:59:14;;;;;;;6.70;5.10;;;;;;;5.89;95.76;96784.13;4183293;28;20206;-87
2022/11/23 06:01:20;;;;;;;10.50;6.03;;;;;;;5.89;95.14;96784.94;4199796;28;20701;-87
2022/11/23 06:03:24;;;;;;;6.72;5.40;;;;;;;5.89;95.24;96784.13;4203830;28;20311;-87
2022/11/23 06:05:27;;;;;;;9.13;5.97;;;;;;;5.87;94.93;96786.00;4187831;28;20237;-87
2022/11/23 06:07:31;;;;;;;7.38;5.35;;;;;;;5.86;94.94;96786.94;4187497;28;20206;-86
2022/11/23 06:09:40;;;;;;;7.43;5.50;;;;;;;5.84;95.39;96781.06;4216612;28;20653;-86
2022/11/23 06:11:47;;;;;;;8.55;5.60;;;;;;;5.85;95.04;96782.69;4182988;28;20689;-87
2022/11/23 06:13:54;;;;;;;8.57;5.38;;;;;;;5.85;94.63;96783.53;4205328;28;20219;-87
2022/11/23 06:15:57;;;;;;;8.38;5.45;;;;;;;5.84;95.04;96784.47;4187624;28;20221;-86
2022/11/23 06:18:09;;;;;;;7.68;5.13;;;;;;;5.86;94.75;96787.75;4187235;28;20238;-86
2022/11/23 06:20:22;;;;;;;13.68;5.20;;;;;;;5.87;94.81;96794.59;4190880;28;20236;-87
2022/11/23 06:22:32;;;;;;;7.15;5.18;;;;;;;5.85;94.41;96783.53;4205641;28;20202;-84
2022/11/23 06:24:38;;;;;;;7.45;4.88;;;;;;;5.82;93.97;96788.91;4183963;28;20277;-85
2022/11/23 06:26:59;;;;;;;8.43;5.70;;;;;;;5.80;93.68;96779.59;4196432;28;20214;-84
2022/11/23 06:29:04;;;;;;;10.80;6.50;;;;;;;5.79;93.72;96781.38;4184813;28;20221;-85
2022/11/23 06:31:09;;;;;;;9.70;5.82;;;;;;;5.78;93.36;96781.50;4183892;28;20205;-85
2022/11/23 06:33:12;;;;;;;8.43;5.28;;;;;;;5.76;93.37;96784.19;4202664;28;20206;-85
2022/11/23 06:35:20;;;;;;;8.27;5.72;;;;;;;5.73;93.16;96783.56;4183787;28;20212;-86
2022/11/23 06:37:24;;;;;;;7.38;4.97;;;;;;;5.69;92.82;96787.28;4202452;28;20197;-85
2022/11/23 06:39:28;;;;;;;8.52;5.60;;;;;;;5.69;92.83;96784.69;4198497;28;20196;-85
2022/11/23 06:41:34;;;;;;;9.00;5.32;;;;;;;5.66;92.68;96787.47;4203969;28;20268;-85
2022/11/23 06:43:38;;;;;;;9.40;5.20;;;;;;;5.62;93.22;96784.31;4183326;28;20203;-85
2022/11/23 06:45:42;;;;;;;6.18;4.97;;;;;;;5.62;93.22;96793.78;4199635;28;20203;-86
2022/11/23 06:47:49;;;;;;;8.18;4.90;;;;;;;5.60;92.61;96788.72;4181636;28;20256;-85
2022/11/23 06:49:52;;;;;;;10.35;5.45;;;;;;;5.57;92.48;96782.94;4200692;28;20244;-85
2022/11/23 06:52:01;;;;;;;9.60;5.10;;;;;;;5.57;92.51;96788.13;4199802;28;20208;-85
2022/11/23 06:54:04;;;;;;;8.35;5.28;;;;;;;5.58;92.47;96788.94;4185144;28;20209;-85
2022/11/23 06:56:09;;;;;;;6.18;5.30;;;;;;;5.58;92.43;96787.19;4203529;28;20222;-85
2022/11/23 06:58:12;;;;;;;8.82;6.05;;;;;;;5.52;92.94;96784.19;4193944;28;20217;-85
2022/11/23 07:00:16;;;;;;;8.75;6.40;;;;;;;5.46;93.45;96792.38;4182843;28;20266;-85
2022/11/23 07:02:21;;;;;;;11.00;6.43;;;;;;;5.48;93.58;96804.28;4205872;28;20345;-84
2022/11/23 07:04:24;;;;;;;9.02;6.05;;;;;;;5.47;93.34;96800.03;4184208;28;20226;-85
2022/11/23 07:06:27;;;;;;;10.18;6.55;;;;;;;5.51;93.39;96803.25;4185095;28;20308;-85
2022/11/23 07:08:34;;;;;;;8.20;5.75;;;;;;;5.50;92.94;96807.56;4187647;28;20202;-86
2022/11/23 07:10:51;;;;;;;15.48;5.55;;;;;;;5.48;92.65;96814.63;4205277;28;20309;-85
2022/11/23 07:12:54;;;;;;;5.95;5.30;;;;;;;5.48;92.53;96814.63;4183843;28;20704;-85
2022/11/23 07:14:59;;;;;;;9.00;5.93;;;;;;;5.54;92.43;96819.38;4189416;28;20239;-85
2022/11/23 07:17:06;;;;;;;8.57;6.30;;;;;;;5.64;92.58;96816.03;4205872;28;20232;-84
2022/11/23 07:19:12;;;;;;;8.73;6.78;;;;;;;5.80;92.51;96823.56;4201759;28;20200;-85
2022/11/23 07:21:17;;;;;;;10.40;5.97;;;;;;;5.94;91.93;96828.59;4200861;28;20605;-85
2022/11/23 07:23:21;;;;;;;8.98;6.07;;;;;;;6.05;91.23;96832.09;4193249;28;20796;-86
2022/11/23 07:25:24;;;;;;;8.18;6.30;;;;;;;6.14;90.71;96832.28;4195505;28;20664;-85
2022/11/23 07:27:28;;;;;;;9.70;6.18;;;;;;;6.25;90.36;96834.91;4186375;28;20276;-85
2022/11/23 07:29:31;;;;;;;9.13;5.80;;;;;;;6.37;90.62;96839.22;4217331;28;20197;-84
2022/11/23 07:31:34;;;;;;;9.68;6.50;;;;;;;6.50;91.02;96839.19;4186816;28;20236;-85
2022/11/23 07:33:37;;;;;;;9.07;6.90;;;;;;;6.61;90.49;96840.03;4203468;28;20209;-85
2022/11/23 07:35:42;;;;;;;7.05;6.15;;;;;;;6.70;90.17;96842.78;4203280;28;20233;-84
2022/11/23 07:37:45;;;;;;;7.97;6.07;;;;;;;6.79;89.49;96839.50;4184689;28;20219;-85
2022/11/23 07:39:48;;;;;;;8.23;5.93;;;;;;;6.89;90.23;96840.50;4187953;28;20202;-85
2022/11/23 07:42:01;;;;;;;6.78;5.18;;;;;;;7.00;89.66;96840.50;4189783;28;20219;-85
2022/11/23 07:44:24;;;;;;;9.02;6.25;;;;;;;7.11;89.30;96841.38;4200518;28;20233;-84
2022/11/23 07:46:27;;;;;;;14.55;11.77;;;;;;;7.20;90.36;96843.28;4179333;28;20212;-85
2022/11/23 07:48:30;;;;;;;25.23;21.77;;;;;;;7.30;88.90;96846.00;4187714;28;20220;-85
2022/11/23 07:50:39;;;;;;;18.48;16.42;;;;;;;7.40;90.10;96847.78;4186049;28;20215;-84
2022/11/23 07:52:43;;;;;;;15.13;11.52;;;;;;;7.52;88.40;96850.28;4184450;28;20212;-85
2022/11/23 07:54:46;;;;;;;11.48;7.22;;;;;;;7.61;89.45;96844.38;4184774;28;20680;-85
2022/11/23 07:56:49;;;;;;;9.10;6.75;;;;;;;7.73;89.02;96853.81;4183342;28;21022;-84
2022/11/23 07:58:52;;;;;;;20.33;15.68;;;;;;;7.82;87.97;96865.25;4195433;28;20207;-84
2022/11/23 08:00:55;;;;;;;9.75;6.53;;;;;;;7.90;88.50;96865.50;4196864;28;20261;-85
2022/11/23 08:02:59;;;;;;;10.15;6.25;;;;;;;7.97;88.50;96873.50;4192745;28;20700;-85
2022/11/23 08:05:22;;;;;;;9.23;5.90;;;;;;;8.06;86.67;96862.41;4185949;28;20208;-84
2022/11/23 08:07:25;;;;;;;10.20;7.00;;;;;;;8.11;86.98;96859.47;4181163;28;20255;-84
2022/11/23 08:09:29;;;;;;;8.73;6.63;;;;;;;8.17;86.53;96859.84;4197160;28;20197;-84
2022/11/23 08:11:33;;;;;;;10.23;7.88;;;;;;;8.13;85.47;96857.59;4181763;28;20212;-84
2022/11/23 08:13:37;;;;;;;8.75;7.47;;;;;;;8.14;86.85;96860.06;4191477;28;20202;-84
2022/11/23 08:15:40;;;;;;;11.80;10.60;;;;;;;8.17;86.49;96857.22;4188845;28;20314;-84
2022/11/23 08:17:43;;;;;;;14.23;7.13;;;;;;;8.24;85.59;96858.41;4200892;28;20209;-84
2022/11/23 08:19:46;;;;;;;14.77;8.27;;;;;;;8.33;85.99;96862.03;4198092;28;20259;-84
2022/11/23 08:21:49;;;;;;;10.80;5.95;;;;;;;8.41;87.26;96862.28;4192675;28;20216;-84
2022/11/23 08:23:52;;;;;;;8.95;6.35;;;;;;;8.46;86.24;96860.94;4201318;28;20208;-84
2022/11/23 08:25:56;;;;;;;8.05;6.80;;;;;;;8.55;86.06;96873.22;4202533;28;20204;-84
2022/11/23 08:28:01;;;;;;;10.07;7.05;;;;;;;8.65;86.07;96874.13;4194678;28;21035;-85
2022/11/23 08:30:05;;;;;;;10.75;8.93;;;;;;;8.74;86.36;96873.41;4196461;28;20208;-85
2022/11/23 08:32:08;;;;;;;11.43;8.88;;;;;;;8.80;85.95;96870.31;4183005;28;20211;-85
2022/11/23 08:34:12;;;;;;;13.88;11.07;;;;;;;8.87;86.33;96861.03;4182708;28;20208;-85
2022/11/23 08:36:15;;;;;;;11.52;9.45;;;;;;;8.92;86.25;96874.50;4187932;28;20699;-85
2022/11/23 08:38:18;;;;;;;9.55;7.40;;;;;;;8.95;85.98;96869.88;4184938;28;20263;-85
2022/11/23 08:40:21;;;;;;;9.05;6.90;;;;;;;9.00;85.44;96873.75;4179850;28;20209;-85
2022/11/23 08:42:29;;;;;;;7.68;5.40;;;;;;;9.07;85.61;96874.91;4184536;28;20392;-85
2022/11/23 08:44:32;;;;;;;9.23;6.30;;;;;;;9.12;85.02;96875.34;4184552;28;20223;-85
2022/11/23 08:46:35;;;;;;;9.50;6.15;;;;;;;9.26;85.36;96880.25;4184963;28;20259;-85
2022/11/23 08:48:38;;;;;;;8.80;6.25;;;;;;;9.39;85.57;96886.06;4200044;28;20209;-85
2022/11/23 08:50:43;;;;;;;9.90;6.32;;;;;;;9.42;85.95;96880.63;4184399;28;20343;-85
2022/11/23 08:52:46;;;;;;;8.30;5.40;;;;;;;9.40;85.44;96882.53;4203141;28;20236;-84
2022/11/23 08:54:49;;;;;;;9.27;6.20;;;;;;;9.48;85.53;96877.50;4202285;28;20295;-85
2022/11/23 08:56:52;;;;;;;7.75;5.80;;;;;;;9.59;85.38;96872.22;4200734;28;20243;-85
2022/11/23 08:58:57;;;;;;;9.38;5.70;;;;;;;9.64;84.69;96867.47;4203961;28;20213;-85
2022/11/23 09:01:00;;;;;;;17.67;13.07;;;;;;;9.76;84.97;96877.69;4202798;28;20282;-84
2022/11/23 09:03:04;;;;;;;6.75;5.60;;;;;;;9.84;85.01;96871.81;4198040;28;20312;-84
2022/11/23 09:05:08;;;;;;;7.38;6.32;;;;;;;9.91;84.62;96878.97;4184198;28;20244;-85
2022/11/23 09:07:11;;;;;;;11.30;5.93;;;;;;;9.96;84.71;96877.66;4194972;28;20209;-85
2022/11/23 09:09:14;;;;;;;9.65;6.82;;;;;;;10.01;84.68;96874.66;4193827;28;20661;-85
2022/11/23 09:11:17;;;;;;;8.88;5.00;;;;;;;10.08;83.80;96879.22;4195779;28;20205;-85
2022/11/23 09:13:21;;;;;;;7.53;5.10;;;;;;;10.14;83.64;96878.69;4198008;28;20212;-85
2022/11/23 09:15:25;;;;;;;7.87;5.20;;;;;;;10.24;83.77;96869.13;4183888;28;20206;-85
2022/11/23 09:17:31;;;;;;;7.70;5.53;;;;;;;10.38;83.96;96874.78;4198702;28;20647;-85
2022/11/23 09:19:34;;;;;;;6.53;5.17;;;;;;;10.49;83.82;96881.66;4194830;28;20291;-85
2022/11/23 09:21:38;;;;;;;5.43;4.43;;;;;;;10.58;82.39;96865.22;4182365;28;21064;-86
2022/11/23 09:23:41;;;;;;;6.80;4.60;;;;;;;10.66;81.39;96878.41;4197837;28;20315;-85
2022/11/23 09:25:47;;;;;;;6.80;4.73;;;;;;;10.77;81.98;96879.13;4186391;28;20678;-85
2022/11/23 09:27:50;;;;;;;8.73;5.53;;;;;;;10.89;83.30;96878.84;4205324;28;20627;-86
2022/11/23 09:29:53;;;;;;;5.65;3.83;;;;;;;11.02;83.55;96882.03;4202601;28;20638;-86
2022/11/23 09:31:57;;;;;;;10.77;4.70;;;;;;;11.16;82.23;96880.78;4204015;28;20240;-85
2022/11/23 09:34:00;;;;;;;15.20;7.30;;;;;;;11.27;82.56;96881.44;4199119;28;21087;-85
2022/11/23 09:36:04;;;;;;;5.63;3.00;;;;;;;11.41;79.73;96888.84;4187792;28;20229;-85
2022/11/23 09:38:07;;;;;;;6.30;3.03;;;;;;;11.53;79.16;96888.63;4202977;28;20639;-85
2022/11/23 09:40:14;;;;;;;10.00;3.93;;;;;;;11.69;80.88;96883.63;4183586;28;20640;-85
2022/11/23 09:42:39;;;;;;;5.27;2.30;;;;;;;11.88;78.71;96889.63;4203207;28;21028;-85
2022/11/23 09:44:55;;;;;;;7.70;2.47;;;;;;;11.86;77.32;96886.34;4186954;28;20735;-85
2022/11/23 09:47:07;;;;;;;5.23;1.87;;;;;;;11.83;77.74;96880.56;4206915;28;20744;-85
2022/11/23 09:49:13;;;;;;;5.57;1.90;;;;;;;11.82;76.61;96886.75;4198624;28;20657;-85
2022/11/23 09:51:18;;;;;;;5.33;1.70;;;;;;;11.91;75.45;96878.88;4179843;28;22678;-85
2022/11/23 09:53:23;;;;;;;10.20;5.97;;;;;;;12.06;75.53;96880.06;4201952;28;20638;-85
2022/11/23 09:55:34;;;;;;;9.33;2.53;;;;;;;12.17;74.63;96877.28;4197790;28;21016;-85
2022/11/23 09:57:39;;;;;;;6.10;1.70;;;;;;;12.20;74.04;96878.78;4199645;28;20626;-85